CheckWX is a tool to help pilots better visualize weather data.  It is not intended as a substitute for an official pre-flight weather briefing.

06:55:01 UTC

66R METAR
Robert R Wells Jr Airport
Columbus, Texas, USA
Current

40 mins ago

K66R 180615Z AUTO 00000KT 10SM SCT034 23/17 A2992 RMK AO2 T02290167
Observed
Jun-18 @ 06:15 UTC
Visibility
10 SM
Flight Rules
VFR
Cloud Levels
  • Scattered at 3,400' AGL
Temperature
23°C / 73°F
Dewpoint
17°C / 63°F
Humidity
69%
Altimeter
29.92" Hg
Pressure
1013.22 hPa
Previous

60 mins ago

K66R 180555Z AUTO 00000KT 10SM CLR 23/17 A2991 RMK AO2 T02300167 10343 20230 403470188
Observed
Jun-18 @ 05:55 UTC
Visibility
10 SM
Flight Rules
VFR
Cloud Levels
  • Clear skies
Temperature
23°C / 73°F
Dewpoint
17°C / 63°F
Humidity
69%
Altimeter
29.91" Hg
Pressure
1012.92 hPa
Previous

1 hour ago

K66R 180535Z AUTO 00000KT 10SM CLR 23/17 A2992 RMK AO2 T02300167
Observed
Jun-18 @ 05:35 UTC
Visibility
10 SM
Flight Rules
VFR
Cloud Levels
  • Clear skies
Temperature
23°C / 73°F
Dewpoint
17°C / 63°F
Humidity
69%
Altimeter
29.92" Hg
Pressure
1013.22 hPa